createdAt,value
2023-02-11T00:01:13.685Z,3.04
2023-02-11T00:03:40.621Z,3.11
2023-02-11T00:06:11.495Z,3.12
2023-02-11T00:08:39.760Z,3.13
2023-02-11T00:11:07.065Z,3.13
2023-02-11T00:13:33.937Z,3.13
2023-02-11T00:16:00.430Z,3.15
2023-02-11T00:18:27.783Z,3.15
2023-02-11T00:20:54.296Z,3.19
2023-02-11T00:23:20.901Z,2.95
2023-02-11T00:25:47.792Z,3.18
2023-02-11T00:28:15.721Z,3.02
2023-02-11T00:30:42.677Z,3.12
2023-02-11T00:33:09.723Z,3.07
2023-02-11T00:35:39.039Z,3.23
2023-02-11T00:38:05.645Z,3.23
2023-02-11T00:40:32.158Z,3.20
2023-02-11T00:42:58.653Z,3.21
2023-02-11T00:45:25.317Z,3.29
2023-02-11T00:47:51.991Z,3.08
2023-02-11T00:50:18.505Z,3.27
2023-02-11T00:52:45.176Z,3.27
2023-02-11T00:55:11.709Z,3.30
2023-02-11T00:57:38.236Z,3.27
2023-02-11T01:00:06.388Z,3.24
2023-02-11T01:02:33.278Z,3.09
2023-02-11T01:05:00.940Z,3.24
2023-02-11T01:07:28.432Z,3.11
2023-02-11T01:09:55.024Z,3.20
2023-02-11T01:12:21.546Z,3.20
2023-02-11T01:14:48.858Z,3.20
2023-02-11T01:17:15.548Z,3.16
2023-02-11T01:19:42.178Z,3.20
2023-02-11T01:22:10.086Z,3.08
2023-02-11T01:24:36.806Z,2.99
2023-02-11T01:27:03.399Z,3.16
2023-02-11T01:29:29.996Z,3.15
2023-02-11T01:31:56.635Z,3.15
2023-02-11T01:34:23.450Z,3.13
2023-02-11T01:36:49.998Z,3.15
2023-02-11T01:39:16.500Z,3.13
2023-02-11T01:41:43.264Z,3.13
2023-02-11T01:44:26.763Z,3.12
2023-02-11T01:46:54.362Z,3.01
2023-02-11T01:49:33.168Z,3.10
2023-02-11T01:52:12.217Z,2.93
2023-02-11T01:55:02.971Z,3.12
2023-02-11T01:57:32.443Z,3.18
2023-02-11T02:00:13.295Z,3.22
2023-02-11T02:03:00.285Z,3.05
2023-02-11T02:05:43.456Z,3.14
2023-02-11T02:08:19.557Z,3.22
2023-02-11T02:10:50.179Z,3.22
2023-02-11T02:13:17.621Z,3.24
2023-02-11T02:15:59.479Z,3.18
2023-02-11T02:19:13.634Z,3.33
2023-02-11T02:21:52.322Z,3.30
2023-02-11T02:24:46.943Z,3.26
2023-02-11T02:27:41.429Z,3.31
2023-02-11T02:30:17.279Z,3.34
2023-02-11T02:32:55.969Z,3.31
2023-02-11T02:35:43.548Z,3.35
2023-02-11T02:38:23.424Z,3.32
2023-02-11T02:40:59.268Z,3.41
2023-02-11T02:43:27.747Z,3.35
2023-02-11T02:45:54.986Z,3.46
2023-02-11T02:48:32.716Z,3.31
2023-02-11T02:51:34.283Z,3.50
2023-02-11T02:54:17.615Z,3.54
2023-02-11T02:57:01.260Z,3.43
2023-02-11T02:59:33.809Z,3.55
2023-02-11T03:02:34.379Z,3.50
2023-02-11T03:05:12.151Z,3.63
2023-02-11T03:07:48.515Z,3.63
2023-02-11T03:10:20.627Z,3.59
2023-02-11T03:12:48.667Z,3.63
2023-02-11T03:15:20.069Z,3.67
2023-02-11T03:17:49.547Z,3.75
2023-02-11T03:20:18.719Z,3.71
2023-02-11T03:22:55.712Z,3.71
2023-02-11T03:25:30.193Z,3.52
2023-02-11T03:28:13.939Z,3.62
2023-02-11T03:30:49.810Z,3.66
2023-02-11T03:33:28.162Z,3.65
2023-02-11T03:36:00.142Z,3.75
2023-02-11T03:38:33.212Z,3.59
2023-02-11T03:41:02.360Z,3.65
2023-02-11T03:43:40.583Z,3.62
2023-02-11T03:46:08.735Z,3.62
2023-02-11T03:48:40.187Z,3.65
2023-02-11T03:51:09.832Z,3.64
2023-02-11T03:53:38.619Z,3.61
2023-02-11T03:56:08.741Z,3.67
2023-02-11T03:58:35.945Z,3.67
2023-02-11T04:01:02.993Z,3.50
2023-02-11T04:03:29.742Z,3.62
2023-02-11T04:05:56.389Z,3.67
2023-02-11T04:08:22.843Z,3.66
2023-02-11T04:10:49.380Z,3.70
2023-02-11T04:13:15.927Z,3.71
2023-02-11T04:15:42.435Z,3.46
2023-02-11T04:18:09.273Z,3.70
2023-02-11T04:20:35.890Z,3.64
2023-02-11T04:23:02.455Z,3.66
2023-02-11T04:25:29.225Z,3.61
2023-02-11T04:27:55.854Z,3.59
2023-02-11T04:30:22.558Z,3.65
2023-02-11T04:32:49.082Z,3.45
2023-02-11T04:35:15.598Z,3.66
2023-02-11T04:37:42.202Z,3.78
2023-02-11T04:40:09.347Z,3.56
2023-02-11T04:42:36.794Z,3.72
2023-02-11T04:45:03.824Z,3.74
2023-02-11T04:47:30.663Z,3.73
2023-02-11T04:49:57.246Z,3.74
2023-02-11T04:52:23.746Z,3.67
2023-02-11T04:54:50.220Z,3.69
2023-02-11T04:57:16.866Z,3.72
2023-02-11T04:59:44.048Z,3.64
2023-02-11T05:02:10.553Z,3.77
2023-02-11T05:04:37.416Z,3.77
2023-02-11T05:07:03.878Z,3.54
2023-02-11T05:09:30.491Z,3.66
2023-02-11T05:11:56.995Z,3.80
2023-02-11T05:14:23.503Z,3.69
2023-02-11T05:16:50.393Z,3.81
2023-02-11T05:19:16.951Z,3.60
2023-02-11T05:21:56.572Z,3.78
2023-02-11T05:24:28.049Z,3.81
2023-02-11T05:26:54.582Z,3.77
2023-02-11T05:29:21.188Z,3.82
2023-02-11T05:31:47.910Z,3.82
2023-02-11T05:34:14.464Z,3.68
2023-02-11T05:36:41.223Z,3.73
2023-02-11T05:39:07.713Z,3.75
2023-02-11T05:41:34.167Z,3.84
2023-02-11T05:44:00.781Z,3.83
2023-02-11T05:46:27.508Z,3.73
2023-02-11T05:48:54.078Z,3.74
2023-02-11T05:51:20.750Z,3.84
2023-02-11T05:53:47.303Z,3.84
2023-02-11T05:56:15.010Z,3.77
2023-02-11T05:58:41.494Z,3.84
2023-02-11T06:01:08.366Z,3.82
2023-02-11T06:03:34.790Z,3.83
2023-02-11T06:06:01.312Z,3.81
2023-02-11T06:08:27.786Z,3.81
2023-02-11T06:10:54.195Z,3.82
2023-02-11T06:13:20.628Z,3.85
2023-02-11T06:15:56.360Z,3.86
2023-02-11T06:18:23.158Z,3.87
2023-02-11T06:20:49.758Z,3.91
2023-02-11T06:23:16.234Z,3.88
2023-02-11T06:25:42.649Z,3.90
2023-02-11T06:28:10.693Z,3.84
2023-02-11T06:30:38.286Z,3.90
2023-02-11T06:33:05.007Z,3.89
2023-02-11T06:35:33.512Z,3.88
2023-02-11T06:37:59.996Z,3.83
2023-02-11T06:40:26.452Z,3.86
2023-02-11T06:42:53.376Z,3.84
2023-02-11T06:45:20.579Z,3.89
2023-02-11T06:47:47.448Z,3.90
2023-02-11T06:50:14.690Z,3.92
2023-02-11T06:52:41.766Z,3.87
2023-02-11T06:55:08.470Z,3.85
2023-02-11T06:57:34.934Z,3.87
2023-02-11T07:00:01.476Z,3.86
2023-02-11T07:02:28.248Z,3.87
2023-02-11T07:04:54.734Z,3.94
2023-02-11T07:07:21.194Z,3.91
2023-02-11T07:09:47.629Z,3.86
2023-02-11T07:12:14.053Z,3.85
2023-02-11T07:14:40.680Z,3.86
2023-02-11T07:17:07.375Z,3.88
2023-02-11T07:19:33.798Z,3.90
2023-02-11T07:22:00.402Z,3.82
2023-02-11T07:24:27.238Z,3.84
2023-02-11T07:26:54.357Z,3.82
2023-02-11T07:29:20.889Z,3.86
2023-02-11T07:31:47.506Z,3.88
2023-02-11T07:34:14.004Z,3.89
2023-02-11T07:36:40.517Z,3.92
2023-02-11T07:39:06.938Z,4.02
2023-02-11T07:41:37.791Z,4.02
2023-02-11T07:44:04.995Z,4.07
2023-02-11T07:46:31.703Z,4.09
2023-02-11T07:48:58.440Z,3.94
2023-02-11T07:51:27.936Z,3.99
2023-02-11T07:53:56.215Z,4.09
2023-02-11T07:56:22.917Z,4.10
2023-02-11T07:58:50.295Z,4.13
2023-02-11T08:01:25.291Z,4.22
2023-02-11T08:03:52.319Z,4.24
2023-02-11T08:06:21.006Z,4.22
2023-02-11T08:08:47.596Z,4.14
2023-02-11T08:11:16.663Z,4.24
2023-02-11T08:13:43.287Z,4.13
2023-02-11T08:16:16.799Z,4.01
2023-02-11T08:18:43.304Z,3.95
2023-02-11T08:21:10.128Z,3.95
2023-02-11T08:23:38.113Z,4.11
2023-02-11T08:26:10.670Z,4.15
2023-02-11T08:28:38.723Z,4.07
2023-02-11T08:31:11.254Z,4.04
2023-02-11T08:33:37.976Z,3.96
2023-02-11T08:36:12.863Z,3.89
2023-02-11T08:38:39.393Z,3.93
2023-02-11T08:41:06.774Z,3.95
2023-02-11T08:43:33.544Z,3.95
2023-02-11T08:46:02.169Z,4.05
2023-02-11T08:48:29.337Z,3.93
2023-02-11T08:50:56.627Z,3.96
2023-02-11T08:53:23.868Z,3.95
2023-02-11T08:55:52.172Z,4.00
2023-02-11T08:58:19.289Z,3.90
2023-02-11T09:00:46.333Z,3.95
2023-02-11T09:03:14.658Z,3.90
2023-02-11T09:05:45.565Z,3.90
2023-02-11T09:08:12.937Z,3.94
2023-02-11T09:10:40.194Z,3.88
2023-02-11T09:13:07.440Z,3.96
2023-02-11T09:15:34.443Z,3.94
2023-02-11T09:18:01.596Z,3.96
2023-02-11T09:20:28.621Z,3.93
2023-02-11T09:22:57.546Z,4.01
2023-02-11T09:25:24.308Z,3.99
2023-02-11T09:27:52.288Z,4.02
2023-02-11T09:30:18.796Z,4.00
2023-02-11T09:32:45.277Z,4.17
2023-02-11T09:35:11.855Z,4.04
2023-02-11T09:37:38.316Z,4.10
2023-02-11T09:40:05.251Z,4.16
2023-02-11T09:42:46.451Z,4.19
2023-02-11T09:45:17.901Z,4.10
2023-02-11T09:47:51.116Z,4.08
2023-02-11T09:50:36.175Z,4.18
2023-02-11T09:53:11.788Z,4.31
2023-02-11T09:55:44.946Z,4.37
2023-02-11T09:58:21.232Z,4.38
2023-02-11T10:01:03.120Z,4.47
2023-02-11T10:03:50.243Z,4.40
2023-02-11T10:06:39.855Z,4.33
2023-02-11T10:09:29.298Z,4.67
2023-02-11T10:12:23.302Z,4.52
2023-02-11T10:15:17.130Z,4.42
2023-02-11T10:18:10.738Z,4.44
2023-02-11T10:21:01.578Z,4.52
2023-02-11T10:23:35.780Z,4.68
2023-02-11T10:26:02.785Z,4.89
2023-02-11T10:28:33.272Z,5.10
2023-02-11T10:31:07.141Z,5.02
2023-02-11T10:33:43.932Z,4.83
2023-02-11T10:36:16.089Z,4.65
2023-02-11T10:38:43.290Z,4.74
2023-02-11T10:41:26.304Z,4.81
2023-02-11T10:43:52.831Z,4.63
2023-02-11T10:46:24.199Z,4.70
2023-02-11T10:48:53.416Z,4.73
2023-02-11T10:51:22.115Z,4.92
2023-02-11T10:54:03.847Z,4.71
2023-02-11T10:56:32.678Z,4.62
2023-02-11T10:59:02.527Z,4.95
2023-02-11T11:01:46.594Z,5.07
2023-02-11T11:04:34.679Z,5.31
2023-02-11T11:07:15.590Z,5.22
2023-02-11T11:09:55.804Z,5.58
2023-02-11T11:12:48.393Z,5.76
2023-02-11T11:15:18.741Z,5.99
2023-02-11T11:17:46.566Z,5.74
2023-02-11T11:20:24.551Z,6.35
2023-02-11T11:22:53.849Z,6.35
2023-02-11T11:25:23.570Z,6.03
2023-02-11T11:27:53.629Z,5.84
2023-02-11T11:30:20.871Z,5.79
2023-02-11T11:32:47.601Z,5.63
2023-02-11T11:35:27.324Z,5.34
2023-02-11T11:38:05.443Z,5.33
2023-02-11T11:40:34.788Z,5.27
2023-02-11T11:43:13.836Z,5.23
2023-02-11T11:45:54.730Z,5.31
2023-02-11T11:48:24.395Z,5.16
2023-02-11T11:50:55.397Z,5.16
2023-02-11T11:53:27.970Z,5.00
2023-02-11T11:56:19.912Z,4.79
2023-02-11T11:58:46.841Z,5.06
2023-02-11T12:01:18.659Z,5.02
2023-02-11T12:04:02.797Z,4.82
2023-02-11T12:06:51.435Z,5.24
2023-02-11T12:09:32.975Z,5.22
2023-02-11T12:12:06.895Z,5.14
2023-02-11T12:14:52.276Z,5.06
2023-02-11T12:17:54.245Z,5.06
2023-02-11T12:20:56.009Z,5.12
2023-02-11T12:23:48.371Z,5.27
2023-02-11T12:26:20.433Z,5.07
2023-02-11T12:29:03.242Z,5.18
2023-02-11T12:31:47.259Z,5.22
2023-02-11T12:34:30.209Z,5.10
2023-02-11T12:37:22.798Z,5.26
2023-02-11T12:40:15.501Z,5.38
2023-02-11T12:43:16.605Z,5.36
2023-02-11T12:46:08.002Z,5.17
2023-02-11T12:48:51.390Z,5.27
2023-02-11T12:51:27.071Z,5.28
2023-02-11T12:54:17.705Z,5.13
2023-02-11T12:56:44.042Z,5.25
2023-02-11T12:59:17.931Z,5.24
2023-02-11T13:01:45.047Z,5.31
2023-02-11T13:04:20.087Z,5.33
2023-02-11T13:06:55.497Z,5.24
2023-02-11T13:09:32.345Z,5.30
2023-02-11T13:12:24.597Z,5.34
2023-02-11T13:14:54.219Z,5.34
2023-02-11T13:17:34.085Z,5.19
2023-02-11T13:20:14.995Z,5.23
2023-02-11T13:22:49.133Z,5.36
2023-02-11T13:25:32.787Z,5.38
2023-02-11T13:28:11.339Z,5.22
2023-02-11T13:30:46.702Z,5.25
2023-02-11T13:33:20.410Z,5.26
2023-02-11T13:35:46.760Z,5.29
2023-02-11T13:38:23.163Z,5.31
2023-02-11T13:41:04.745Z,5.28
2023-02-11T13:43:34.120Z,5.26
2023-02-11T13:46:04.124Z,5.24
2023-02-11T13:48:35.069Z,5.23
2023-02-11T13:51:10.799Z,5.25
2023-02-11T13:53:57.737Z,5.19
2023-02-11T13:56:32.408Z,5.30
2023-02-11T13:59:02.297Z,5.24
2023-02-11T14:02:07.301Z,5.19
2023-02-11T14:04:52.939Z,5.23
2023-02-11T14:07:52.122Z,5.07
2023-02-11T14:10:43.054Z,5.19
2023-02-11T14:13:28.224Z,5.15
2023-02-11T14:16:13.427Z,5.25
2023-02-11T14:18:45.613Z,5.16
2023-02-11T14:21:18.876Z,5.24
2023-02-11T14:23:46.332Z,5.23
2023-02-11T14:26:21.919Z,5.22
2023-02-11T14:28:54.917Z,5.10
2023-02-11T14:31:33.867Z,5.17
2023-02-11T14:34:39.717Z,5.19
2023-02-11T14:37:30.439Z,5.21
2023-02-11T14:40:08.607Z,5.26
2023-02-11T14:42:38.072Z,5.20
2023-02-11T14:45:11.092Z,5.18
2023-02-11T14:47:53.747Z,5.18
2023-02-11T14:50:28.262Z,5.12
2023-02-11T14:52:56.401Z,5.08
2023-02-11T14:55:33.547Z,5.09
2023-02-11T14:58:13.294Z,5.09
2023-02-11T15:00:50.518Z,5.09
2023-02-11T15:03:35.056Z,5.07
2023-02-11T15:06:06.430Z,5.01
2023-02-11T15:08:37.213Z,5.02
2023-02-11T15:11:10.083Z,5.04
2023-02-11T15:13:36.728Z,5.01
2023-02-11T15:16:11.526Z,5.05
2023-02-11T15:18:42.532Z,5.06
2023-02-11T15:21:10.374Z,5.11
2023-02-11T15:23:37.356Z,5.11
2023-02-11T15:26:13.512Z,5.10
2023-02-11T15:28:49.013Z,4.98
2023-02-11T15:31:18.065Z,5.04
2023-02-11T15:33:45.526Z,5.04
2023-02-11T15:36:14.797Z,5.07
2023-02-11T15:38:41.486Z,5.05
2023-02-11T15:41:27.916Z,4.93
2023-02-11T15:43:54.369Z,4.94
2023-02-11T15:46:23.186Z,4.92
2023-02-11T15:48:53.670Z,4.87
2023-02-11T15:51:29.558Z,4.91
2023-02-11T15:53:58.740Z,4.85
2023-02-11T15:56:33.281Z,4.88
2023-02-11T15:59:08.883Z,4.78
2023-02-11T16:01:37.496Z,4.76
2023-02-11T16:04:05.670Z,4.67
2023-02-11T16:06:39.447Z,4.73
2023-02-11T16:09:05.799Z,4.82
2023-02-11T16:11:35.276Z,4.82
2023-02-11T16:14:20.022Z,4.84
2023-02-11T16:16:50.312Z,4.80
2023-02-11T16:19:24.161Z,4.81
2023-02-11T16:21:53.866Z,4.76
2023-02-11T16:24:24.618Z,4.78
2023-02-11T16:26:54.936Z,4.84
2023-02-11T16:29:30.003Z,4.81
2023-02-11T16:32:29.672Z,4.75
2023-02-11T16:34:58.968Z,4.71
2023-02-11T16:37:25.994Z,4.73
2023-02-11T16:39:58.811Z,4.70
2023-02-11T16:42:25.728Z,4.68
2023-02-11T16:44:52.187Z,4.67
2023-02-11T16:47:28.683Z,4.61
2023-02-11T16:49:56.334Z,4.66
2023-02-11T16:52:23.334Z,4.59
2023-02-11T16:54:52.355Z,4.64
2023-02-11T16:57:24.393Z,4.66
2023-02-11T16:59:51.867Z,4.71
2023-02-11T17:02:24.814Z,4.72
2023-02-11T17:04:53.791Z,4.72
2023-02-11T17:07:20.514Z,4.64
2023-02-11T17:09:46.985Z,4.59
2023-02-11T17:12:13.617Z,4.71
2023-02-11T17:14:40.055Z,4.61
2023-02-11T17:17:06.716Z,4.61
2023-02-11T17:19:33.253Z,4.62
2023-02-11T17:22:00.018Z,4.62
2023-02-11T17:24:26.471Z,4.68
2023-02-11T17:26:53.018Z,4.72
2023-02-11T17:29:22.556Z,4.73
2023-02-11T17:31:49.818Z,4.68
2023-02-11T17:34:16.709Z,4.76
2023-02-11T17:36:43.219Z,4.73
2023-02-11T17:39:10.132Z,4.69
2023-02-11T17:41:37.716Z,4.72
2023-02-11T17:44:04.966Z,4.72
2023-02-11T17:46:32.225Z,4.73
2023-02-11T17:49:00.348Z,4.65
2023-02-11T17:51:31.061Z,4.73
2023-02-11T17:54:00.223Z,4.76
2023-02-11T17:56:26.740Z,4.63
2023-02-11T17:58:53.395Z,4.77
2023-02-11T18:01:20.456Z,4.74
2023-02-11T18:03:47.026Z,4.75
2023-02-11T18:06:14.398Z,4.66
2023-02-11T18:08:41.914Z,4.75
2023-02-11T18:11:12.684Z,4.72
2023-02-11T18:13:39.155Z,4.78
2023-02-11T18:16:08.680Z,4.80
2023-02-11T18:18:35.573Z,4.70
2023-02-11T18:21:04.150Z,4.80
2023-02-11T18:23:30.637Z,4.79
2023-02-11T18:25:57.053Z,4.79
2023-02-11T18:28:23.663Z,4.73
2023-02-11T18:30:57.399Z,4.80
2023-02-11T18:33:23.940Z,4.81
2023-02-11T18:35:50.726Z,4.84
2023-02-11T18:38:18.973Z,4.85
2023-02-11T18:40:50.370Z,4.84
2023-02-11T18:43:18.881Z,4.85
2023-02-11T18:45:50.338Z,4.88
2023-02-11T18:48:18.572Z,4.85
2023-02-11T18:50:46.342Z,4.95
2023-02-11T18:53:15.648Z,4.97
2023-02-11T18:55:49.144Z,4.90
2023-02-11T18:58:16.011Z,4.99
2023-02-11T19:00:45.048Z,4.92
2023-02-11T19:03:12.303Z,4.93
2023-02-11T19:05:43.198Z,4.84
2023-02-11T19:08:09.823Z,4.85
2023-02-11T19:10:40.119Z,4.90
2023-02-11T19:13:06.600Z,4.88
2023-02-11T19:15:33.110Z,4.89
2023-02-11T19:17:59.524Z,4.89
2023-02-11T19:20:25.987Z,4.87
2023-02-11T19:22:52.388Z,4.86
2023-02-11T19:25:19.610Z,4.91
2023-02-11T19:27:46.011Z,4.88
2023-02-11T19:30:12.776Z,4.83
2023-02-11T19:32:39.230Z,4.88
2023-02-11T19:35:06.459Z,4.88
2023-02-11T19:37:32.967Z,4.90
2023-02-11T19:39:59.383Z,4.83
2023-02-11T19:42:27.646Z,4.86
2023-02-11T19:44:54.251Z,4.88
2023-02-11T19:47:27.499Z,4.82
2023-02-11T19:49:54.279Z,4.88
2023-02-11T19:52:21.107Z,4.89
2023-02-11T19:54:47.580Z,4.97
2023-02-11T19:57:14.000Z,4.99
2023-02-11T19:59:40.491Z,4.99
2023-02-11T20:02:06.918Z,5.05
2023-02-11T20:04:33.676Z,4.96
2023-02-11T20:07:00.563Z,4.97
2023-02-11T20:09:29.019Z,5.01
2023-02-11T20:11:55.469Z,4.99
2023-02-11T20:14:21.934Z,5.08
2023-02-11T20:16:50.114Z,5.03
2023-02-11T20:19:19.333Z,5.06
2023-02-11T20:21:48.216Z,5.03
2023-02-11T20:24:16.127Z,5.01
2023-02-11T20:26:42.723Z,5.15
2023-02-11T20:29:09.867Z,5.17
2023-02-11T20:31:36.883Z,5.13
2023-02-11T20:34:03.553Z,5.11
2023-02-11T20:36:34.095Z,5.09
2023-02-11T20:39:04.846Z,5.07
2023-02-11T20:41:34.319Z,5.08
2023-02-11T20:44:05.090Z,5.03
2023-02-11T20:46:33.579Z,5.02
2023-02-11T20:49:00.712Z,5.03
2023-02-11T20:51:30.264Z,5.02
2023-02-11T20:53:57.728Z,5.04
2023-02-11T20:56:26.901Z,5.05
2023-02-11T20:58:53.614Z,5.02
2023-02-11T21:01:23.625Z,5.01
2023-02-11T21:03:59.041Z,5.02
2023-02-11T21:06:30.855Z,5.04
2023-02-11T21:08:57.567Z,4.94
2023-02-11T21:11:24.039Z,5.02
2023-02-11T21:13:51.153Z,5.02
2023-02-11T21:16:22.652Z,5.02
2023-02-11T21:18:50.271Z,5.02
2023-02-11T21:21:19.032Z,5.03
2023-02-11T21:23:46.169Z,5.05
2023-02-11T21:26:13.032Z,5.02
2023-02-11T21:28:41.162Z,5.09
2023-02-11T21:31:08.332Z,5.09
2023-02-11T21:33:35.050Z,5.03
2023-02-11T21:36:03.558Z,5.13
2023-02-11T21:38:30.374Z,5.12
2023-02-11T21:41:03.122Z,5.12
2023-02-11T21:43:29.521Z,5.14
2023-02-11T21:45:56.134Z,5.16
2023-02-11T21:48:23.836Z,5.13
2023-02-11T21:50:50.303Z,5.17
2023-02-11T21:53:17.139Z,5.09
2023-02-11T21:55:44.355Z,5.11
2023-02-11T21:58:12.637Z,5.16
2023-02-11T22:00:39.470Z,5.13
2023-02-11T22:03:05.930Z,5.11
2023-02-11T22:05:32.528Z,4.86
2023-02-11T22:07:58.942Z,5.16
2023-02-11T22:10:25.362Z,5.14
2023-02-11T22:12:51.790Z,5.17
2023-02-11T22:15:18.253Z,5.18
2023-02-11T22:17:44.750Z,5.16
2023-02-11T22:20:13.367Z,5.19
2023-02-11T22:22:39.821Z,5.19
2023-02-11T22:25:06.838Z,5.21
2023-02-11T22:27:33.266Z,5.22
2023-02-11T22:29:59.878Z,5.24
2023-02-11T22:32:26.738Z,5.29
2023-02-11T22:34:53.653Z,5.31
2023-02-11T22:37:20.507Z,5.26
2023-02-11T22:39:47.117Z,5.31
2023-02-11T22:42:13.593Z,5.29
2023-02-11T22:44:40.106Z,5.25
2023-02-11T22:47:06.538Z,5.26
2023-02-11T22:49:33.304Z,5.26
2023-02-11T22:52:00.100Z,5.26
2023-02-11T22:54:26.613Z,5.27
2023-02-11T22:56:53.393Z,5.23
2023-02-11T22:59:23.079Z,5.34
2023-02-11T23:01:49.727Z,5.27
2023-02-11T23:04:17.035Z,5.33
2023-02-11T23:06:43.544Z,5.20
2023-02-11T23:09:12.517Z,5.26
2023-02-11T23:11:39.684Z,5.26
2023-02-11T23:14:08.594Z,5.24
2023-02-11T23:16:35.649Z,5.23
2023-02-11T23:19:08.325Z,5.23
2023-02-11T23:21:37.117Z,5.25
2023-02-11T23:24:05.236Z,5.23
2023-02-11T23:26:31.747Z,5.07
2023-02-11T23:29:00.647Z,5.22
2023-02-11T23:31:34.922Z,5.26
2023-02-11T23:34:01.698Z,5.18
2023-02-11T23:36:28.726Z,5.32
2023-02-11T23:38:55.441Z,5.34
2023-02-11T23:41:22.196Z,5.37
2023-02-11T23:43:53.668Z,5.33
2023-02-11T23:46:24.373Z,5.18
2023-02-11T23:48:51.710Z,5.36
2023-02-11T23:51:18.848Z,5.27
2023-02-11T23:53:46.235Z,5.33
2023-02-11T23:56:18.949Z,5.26
2023-02-11T23:58:48.318Z,5.20
